Time,TemperatureF,DewpointF,PressureIn,WindDirection,WindDirectionDegrees,WindSpeedMPH,WindSpeedGustMPH,Humidity,HourlyPrecipIn,Conditions,Clouds,dailyrainin,SolarRadiationWatts/m^2,SoftwareType,DateUTC
2013-05-28 00:00:00,55.2,55.3,29.70,SW,225,6.3,11.2,100,0.00,,,-99.99,1.0,HOBO +U30 +Weather +,2013-05-28 07:00:00,
2013-05-28 00:05:00,55.2,55.3,29.69,SW,223,5.6,12.3,100,0.00,,,-99.99,1.0,HOBO +U30 +Weather +,2013-05-28 07:05:00,
2013-05-28 00:10:00,55.2,55.2,29.69,SW,220,6.7,14.1,100,0.00,,,-99.99,1.0,HOBO +U30 +Weather +,2013-05-28 07:10:00,
2013-05-28 00:15:00,55.2,55.3,29.69,SW,222,6.3,12.3,100,0.00,,,-99.99,1.0,HOBO +U30 +Weather +,2013-05-28 07:15:00,
2013-05-28 00:20:00,55.2,55.2,29.69,SW,226,6.3,10.1,100,0.00,,,-99.99,1.0,HOBO +U30 +Weather +,2013-05-28 07:20:00,
2013-05-28 00:25:00,55.2,55.2,29.69,SW,223,6.3,9.6,100,0.00,,,-99.99,1.0,HOBO +U30 +Weather +,2013-05-28 07:25:00,
2013-05-28 00:30:00,55.1,55.2,29.69,SW,220,6.3,11.9,100,0.00,,,-99.99,1.0,HOBO +U30 +Weather +,2013-05-28 07:30:00,
2013-05-28 00:35:00,55.0,55.1,29.69,SW,222,8.5,13.0,100,0.00,,,-99.99,1.0,HOBO +U30 +Weather +,2013-05-28 07:35:00,
2013-05-28 00:40:00,55.1,55.2,29.69,SW,222,5.6,9.6,100,0.00,,,-99.99,1.0,HOBO +U30 +Weather +,2013-05-28 07:40:00,
2013-05-28 00:45:00,55.0,55.1,29.69,SW,218,5.1,9.6,100,0.00,,,-99.99,1.0,HOBO +U30 +Weather +,2013-05-28 07:45:00,
2013-05-28 00:50:00,55.0,55.0,29.69,SW,220,6.3,10.7,100,0.00,,,-99.99,1.0,HOBO +U30 +Weather +,2013-05-28 07:50:00,
2013-05-28 00:55:00,55.1,55.1,29.69,SW,220,4.0,8.9,100,0.00,,,-99.99,1.0,HOBO +U30 +Weather +,2013-05-28 07:55:00,
2013-05-28 01:00:00,55.0,55.0,29.68,SW,223,5.6,11.2,100,0.00,,,-99.99,1.0,HOBO +U30 +Weather +,2013-05-28 08:00:00,
2013-05-28 01:05:00,54.9,55.0,29.68,SW,218,5.6,10.1,100,0.00,,,-99.99,1.0,HOBO +U30 +Weather +,2013-05-28 08:05:00,
2013-05-28 01:10:00,54.9,54.9,29.68,SW,220,5.6,10.7,100,0.00,,,-99.99,1.0,HOBO +U30 +Weather +,2013-05-28 08:10:00,
2013-05-28 01:15:00,54.9,55.0,29.67,SW,219,5.1,10.1,100,0.00,,,-99.99,1.0,HOBO +U30 +Weather +,2013-05-28 08:15:00,
2013-05-28 01:20:00,54.8,54.9,29.67,SW,225,5.6,10.1,100,0.00,,,-99.99,1.0,HOBO +U30 +Weather +,2013-05-28 08:20:00,
2013-05-28 01:25:00,54.9,54.9,29.67,SSW,209,5.1,11.2,100,0.00,,,-99.99,1.0,HOBO +U30 +Weather +,2013-05-28 08:25:00,
2013-05-28 01:30:00,54.8,54.8,29.67,SW,223,5.1,11.2,100,0.00,,,-99.99,1.0,HOBO +U30 +Weather +,2013-05-28 08:30:00,
2013-05-28 01:35:00,54.8,54.9,29.67,SW,219,5.1,8.9,100,0.00,,,-99.99,1.0,HOBO +U30 +Weather +,2013-05-28 08:35:00,
2013-05-28 01:40:00,54.8,54.9,29.67,SW,220,6.3,11.9,100,0.00,,,-99.99,1.0,HOBO +U30 +Weather +,2013-05-28 08:40:00,
2013-05-28 01:45:00,54.8,54.8,29.68,SW,229,4.5,7.8,100,0.00,,,-99.99,1.0,HOBO +U30 +Weather +,2013-05-28 08:45:00,
2013-05-28 01:50:00,54.9,54.9,29.68,SW,223,4.5,8.5,100,0.00,,,-99.99,1.0,HOBO +U30 +Weather +,2013-05-28 08:50:00,
2013-05-28 01:55:00,54.8,54.9,29.67,SW,223,5.1,8.5,100,0.00,,,-99.99,1.0,HOBO +U30 +Weather +,2013-05-28 08:55:00,
2013-05-28 02:00:00,54.8,54.9,29.68,SW,225,3.4,7.8,100,0.00,,,-99.99,1.0,HOBO +U30 +Weather +,2013-05-28 09:00:00,
2013-05-28 02:05:00,54.6,54.7,29.68,SW,227,5.1,11.9,100,0.00,,,-99.99,1.0,HOBO +U30 +Weather +,2013-05-28 09:05:00,
2013-05-28 02:10:00,54.7,54.7,29.68,SW,220,5.6,10.1,100,0.00,,,-99.99,1.0,HOBO +U30 +Weather +,2013-05-28 09:10:00,
2013-05-28 02:15:00,54.7,54.7,29.67,SW,220,4.0,8.9,100,0.00,,,-99.99,1.0,HOBO +U30 +Weather +,2013-05-28 09:15:00,
2013-05-28 02:20:00,54.6,54.6,29.67,SW,223,4.0,11.2,100,0.00,,,-99.99,1.0,HOBO +U30 +Weather +,2013-05-28 09:20:00,
2013-05-28 02:25:00,54.5,54.5,29.67,SW,222,5.1,10.7,100,0.00,,,-99.99,1.0,HOBO +U30 +Weather +,2013-05-28 09:25:00,
2013-05-28 02:30:00,54.4,54.4,29.67,SW,223,4.5,8.5,100,0.00,,,-99.99,1.0,HOBO +U30 +Weather +,2013-05-28 09:30:00,
2013-05-28 02:40:00,54.3,54.4,29.67,SW,226,4.0,7.8,100,0.00,,,-99.99,1.0,HOBO +U30 +Weather +,2013-05-28 09:40:00,
2013-05-28 02:45:00,54.1,54.1,29.67,SW,225,4.5,8.9,100,0.00,,,-99.99,1.0,HOBO +U30 +Weather +,2013-05-28 09:45:00,
2013-05-28 02:50:00,54.0,54.0,29.67,SW,219,5.6,8.5,100,0.00,,,-99.99,1.0,HOBO +U30 +Weather +,2013-05-28 09:50:00,
2013-05-28 02:55:00,53.9,53.9,29.67,SW,220,5.6,9.6,100,0.00,,,-99.99,1.0,HOBO +U30 +Weather +,2013-05-28 09:55:00,
2013-05-28 03:00:00,53.8,53.8,29.67,SW,223,4.5,8.5,100,0.00,,,-99.99,1.0,HOBO +U30 +Weather +,2013-05-28 10:00:00,
2013-05-28 03:05:00,53.8,53.8,29.67,SW,225,4.5,7.4,100,0.00,,,-99.99,1.0,HOBO +U30 +Weather +,2013-05-28 10:05:00,
2013-05-28 03:10:00,53.7,53.7,29.67,SW,229,4.5,7.8,100,0.00,,,-99.99,1.0,HOBO +U30 +Weather +,2013-05-28 10:10:00,
2013-05-28 03:15:00,53.5,53.5,29.67,SW,232,4.5,7.8,100,0.00,,,-99.99,1.0,HOBO +U30 +Weather +,2013-05-28 10:15:00,
2013-05-28 03:20:00,53.4,53.4,29.67,SW,232,5.1,8.9,100,0.00,,,-99.99,1.0,HOBO +U30 +Weather +,2013-05-28 10:20:00,
2013-05-28 03:25:00,53.4,53.4,29.67,SW,225,5.6,8.9,100,0.00,,,-99.99,1.0,HOBO +U30 +Weather +,2013-05-28 10:25:00,
2013-05-28 03:30:00,53.3,53.4,29.66,SW,222,5.6,9.6,100,0.00,,,-99.99,1.0,HOBO +U30 +Weather +,2013-05-28 10:30:00,
2013-05-28 03:35:00,53.4,53.4,29.66,SW,223,4.5,7.4,100,0.00,,,-99.99,1.0,HOBO +U30 +Weather +,2013-05-28 10:35:00,
2013-05-28 03:40:00,53.4,53.4,29.66,SW,222,4.0,6.3,100,0.00,,,-99.99,1.0,HOBO +U30 +Weather +,2013-05-28 10:40:00,
2013-05-28 03:45:00,53.3,53.3,29.66,SW,225,3.4,6.3,100,0.00,,,-99.99,1.0,HOBO +U30 +Weather +,2013-05-28 10:45:00,
2013-05-28 03:50:00,53.3,53.3,29.66,SW,227,4.5,7.8,100,0.00,,,-99.99,1.0,HOBO +U30 +Weather +,2013-05-28 10:50:00,
2013-05-28 03:55:00,53.3,53.3,29.66,SW,226,2.9,5.6,100,0.00,,,-99.99,1.0,HOBO +U30 +Weather +,2013-05-28 10:55:00,
2013-05-28 04:00:00,53.3,53.3,29.66,SW,232,3.4,6.3,100,0.00,,,-99.99,1.0,HOBO +U30 +Weather +,2013-05-28 11:00:00,
2013-05-28 04:05:00,53.2,53.2,29.66,SW,234,1.8,4.5,100,0.00,,,-99.99,1.0,HOBO +U30 +Weather +,2013-05-28 11:05:00,
2013-05-28 04:10:00,53.1,53.1,29.66,WSW,253,1.8,4.0,100,0.00,,,-99.99,1.0,HOBO +U30 +Weather +,2013-05-28 11:10:00,
2013-05-28 04:15:00,53.2,53.2,29.66,SW,223,2.9,5.6,100,0.00,,,-99.99,1.0,HOBO +U30 +Weather +,2013-05-28 11:15:00,
2013-05-28 04:20:00,53.3,53.3,29.66,SW,219,2.9,5.6,100,0.00,,,-99.99,1.0,HOBO +U30 +Weather +,2013-05-28 11:20:00,
2013-05-28 04:25:00,53.1,53.1,29.66,SW,220,4.0,6.3,100,0.00,,,-99.99,1.0,HOBO +U30 +Weather +,2013-05-28 11:25:00,
2013-05-28 04:30:00,53.1,53.1,29.66,SW,223,3.4,5.1,100,0.00,,,-99.99,1.0,HOBO +U30 +Weather +,2013-05-28 11:30:00,
2013-05-28 04:35:00,53.1,53.1,29.67,SW,226,3.4,6.7,100,0.00,,,-99.99,1.0,HOBO +U30 +Weather +,2013-05-28 11:35:00,
2013-05-28 04:40:00,53.1,53.1,29.67,SW,230,0.7,4.0,100,0.00,,,-99.99,1.0,HOBO +U30 +Weather +,2013-05-28 11:40:00,
2013-05-28 04:45:00,53.1,53.1,29.66,SW,230,2.9,6.7,100,0.00,,,-99.99,1.0,HOBO +U30 +Weather +,2013-05-28 11:45:00,
2013-05-28 04:50:00,53.1,53.1,29.66,SW,227,3.4,6.3,100,0.00,,,-99.99,1.0,HOBO +U30 +Weather +,2013-05-28 11:50:00,
2013-05-28 04:55:00,53.1,53.1,29.66,SW,225,3.4,5.6,100,0.00,,,-99.99,1.0,HOBO +U30 +Weather +,2013-05-28 11:55:00,
2013-05-28 05:00:00,53.0,53.0,29.65,SW,223,4.5,8.9,100,0.00,,,-99.99,1.0,HOBO +U30 +Weather +,2013-05-28 12:00:00,
2013-05-28 05:05:00,52.8,52.8,29.65,SW,225,6.3,8.9,100,0.00,,,-99.99,1.0,HOBO +U30 +Weather +,2013-05-28 12:05:00,
2013-05-28 05:10:00,52.8,52.8,29.65,SW,232,4.5,7.4,100,0.00,,,-99.99,1.0,HOBO +U30 +Weather +,2013-05-28 12:10:00,
2013-05-28 05:15:00,52.7,52.8,29.65,SW,232,4.5,7.8,100,0.00,,,-99.99,1.0,HOBO +U30 +Weather +,2013-05-28 12:15:00,
2013-05-28 05:20:00,52.7,52.8,29.65,SW,229,4.0,7.4,100,0.00,,,-99.99,1.0,HOBO +U30 +Weather +,2013-05-28 12:20:00,
2013-05-28 05:25:00,52.6,52.7,29.65,SW,229,5.1,9.6,100,0.00,,,-99.99,1.0,HOBO +U30 +Weather +,2013-05-28 12:25:00,
2013-05-28 05:30:00,52.6,52.7,29.65,SW,227,6.3,9.6,100,0.00,,,-99.99,1.0,HOBO +U30 +Weather +,2013-05-28 12:30:00,
2013-05-28 05:35:00,52.6,52.7,29.65,SW,229,5.1,9.6,100,0.00,,,-99.99,1.0,HOBO +U30 +Weather +,2013-05-28 12:35:00,
2013-05-28 05:40:00,52.6,52.7,29.65,SW,229,5.1,8.5,100,0.00,,,-99.99,1.0,HOBO +U30 +Weather +,2013-05-28 12:40:00,
2013-05-28 05:45:00,52.7,52.7,29.65,SW,222,4.5,7.4,100,0.00,,,-99.99,1.0,HOBO +U30 +Weather +,2013-05-28 12:45:00,
2013-05-28 05:50:00,52.5,52.5,29.65,SW,227,5.1,7.8,100,0.00,,,-99.99,1.0,HOBO +U30 +Weather +,2013-05-28 12:50:00,
2013-05-28 05:55:00,52.5,52.5,29.65,SW,225,5.1,8.5,100,0.00,,,-99.99,2.0,HOBO +U30 +Weather +,2013-05-28 12:55:00,
2013-05-28 06:00:00,52.4,52.4,29.66,WSW,237,2.2,5.6,100,0.00,,,-99.99,4.0,HOBO +U30 +Weather +,2013-05-28 13:00:00,
2013-05-28 06:05:00,52.3,52.4,29.66,SW,230,3.4,7.8,100,0.14,,,-99.99,7.0,HOBO +U30 +Weather +,2013-05-28 13:05:00,
2013-05-28 06:10:00,52.4,52.4,29.66,NW,324,0.0,2.2,100,0.00,,,-99.99,9.0,HOBO +U30 +Weather +,2013-05-28 13:10:00,
2013-05-28 06:15:00,52.3,52.4,29.65,WSW,237,0.7,2.9,100,0.00,,,-99.99,17.0,HOBO +U30 +Weather +,2013-05-28 13:15:00,
2013-05-28 06:20:00,52.3,52.3,29.65,SW,220,2.2,7.4,100,0.00,,,-99.99,21.0,HOBO +U30 +Weather +,2013-05-28 13:20:00,
2013-05-28 06:25:00,52.2,52.2,29.66,SW,219,5.6,10.7,100,0.00,,,-99.99,27.0,HOBO +U30 +Weather +,2013-05-28 13:25:00,
2013-05-28 06:30:00,52.3,52.3,29.66,SW,220,4.5,7.4,100,0.00,,,-99.99,33.0,HOBO +U30 +Weather +,2013-05-28 13:30:00,
2013-05-28 06:35:00,52.2,52.3,29.66,SW,222,4.5,7.4,100,0.00,,,-99.99,36.0,HOBO +U30 +Weather +,2013-05-28 13:35:00,
2013-05-28 06:40:00,52.3,52.4,29.66,SW,227,4.0,6.3,100,0.00,,,-99.99,44.0,HOBO +U30 +Weather +,2013-05-28 13:40:00,
2013-05-28 06:45:00,52.5,52.5,29.66,SW,223,3.4,6.7,100,0.00,,,-99.99,51.0,HOBO +U30 +Weather +,2013-05-28 13:45:00,
2013-05-28 06:50:00,52.6,52.7,29.66,SW,219,4.5,7.4,100,0.00,,,-99.99,46.0,HOBO +U30 +Weather +,2013-05-28 13:50:00,
2013-05-28 06:55:00,52.9,52.9,29.66,SSW,213,4.0,8.5,100,0.00,,,-99.99,44.0,HOBO +U30 +Weather +,2013-05-28 13:55:00,
2013-05-28 07:00:00,53.0,53.0,29.65,SW,215,3.4,6.7,100,0.00,,,-99.99,46.0,HOBO +U30 +Weather +,2013-05-28 14:00:00,
2013-05-28 07:05:00,53.0,53.0,29.66,SSW,213,1.1,4.0,100,0.00,,,-99.99,58.0,HOBO +U30 +Weather +,2013-05-28 14:05:00,
2013-05-28 07:10:00,53.0,53.0,29.67,SW,216,0.7,2.9,100,0.00,,,-99.99,54.0,HOBO +U30 +Weather +,2013-05-28 14:10:00,
2013-05-28 07:15:00,53.0,53.1,29.67,SW,223,0.7,4.0,100,0.00,,,-99.99,48.0,HOBO +U30 +Weather +,2013-05-28 14:15:00,
2013-05-28 07:20:00,53.4,53.4,29.67,South,184,0.0,2.2,100,0.00,,,-99.99,42.0,HOBO +U30 +Weather +,2013-05-28 14:20:00,
2013-05-28 07:25:00,53.6,53.6,29.67,SSW,208,0.0,5.6,100,0.00,,,-99.99,44.0,HOBO +U30 +Weather +,2013-05-28 14:25:00,
2013-05-28 07:30:00,53.7,53.7,29.67,SSW,213,0.7,5.1,100,0.00,,,-99.99,64.0,HOBO +U30 +Weather +,2013-05-28 14:30:00,
2013-05-28 07:35:00,53.7,53.7,29.67,SSW,208,0.0,3.4,100,0.00,,,-99.99,67.0,HOBO +U30 +Weather +,2013-05-28 14:35:00,
2013-05-28 07:40:00,53.8,53.8,29.67,SW,220,0.0,5.1,100,0.00,,,-99.99,51.0,HOBO +U30 +Weather +,2013-05-28 14:40:00,
2013-05-28 07:45:00,53.6,53.6,29.67,SSW,202,1.8,6.3,100,0.00,,,-99.99,59.0,HOBO +U30 +Weather +,2013-05-28 14:45:00,
2013-05-28 07:50:00,53.7,53.7,29.66,SSW,213,1.1,3.4,100,0.00,,,-99.99,62.0,HOBO +U30 +Weather +,2013-05-28 14:50:00,
2013-05-28 07:55:00,53.7,53.7,29.66,SW,215,1.8,5.1,100,0.00,,,-99.99,99.0,HOBO +U30 +Weather +,2013-05-28 14:55:00,
2013-05-28 08:00:00,53.8,53.8,29.66,SSW,195,0.7,4.0,100,0.00,,,-99.99,91.0,HOBO +U30 +Weather +,2013-05-28 15:00:00,
2013-05-28 08:05:00,54.0,54.0,29.66,SSW,194,0.0,4.5,100,0.00,,,-99.99,112.0,HOBO +U30 +Weather +,2013-05-28 15:05:00,
2013-05-28 08:10:00,54.4,54.4,29.66,SW,215,0.0,2.2,100,0.00,,,-99.99,99.0,HOBO +U30 +Weather +,2013-05-28 15:10:00,
2013-05-28 08:15:00,54.9,55.0,29.66,SW,234,0.7,3.4,100,0.00,,,-99.99,82.0,HOBO +U30 +Weather +,2013-05-28 15:15:00,
2013-05-28 08:20:00,55.0,55.0,29.66,SW,229,0.7,3.4,100,0.00,,,-99.99,209.0,HOBO +U30 +Weather +,2013-05-28 15:20:00,
2013-05-28 08:25:00,55.1,55.1,29.66,SSW,206,1.1,4.0,100,0.00,,,-99.99,172.0,HOBO +U30 +Weather +,2013-05-28 15:25:00,
2013-05-28 08:35:00,54.8,54.9,29.67,SSW,213,1.8,7.4,100,0.00,,,-99.99,191.0,HOBO +U30 +Weather +,2013-05-28 15:35:00,
2013-05-28 08:40:00,55.1,55.2,29.67,SW,230,2.9,6.3,100,0.00,,,-99.99,236.0,HOBO +U30 +Weather +,2013-05-28 15:40:00,
2013-05-28 08:45:00,55.0,55.0,29.67,SW,230,4.0,7.4,100,0.00,,,-99.99,203.0,HOBO +U30 +Weather +,2013-05-28 15:45:00,
2013-05-28 08:50:00,55.1,55.2,29.67,WSW,251,1.8,4.5,100,0.00,,,-99.99,154.0,HOBO +U30 +Weather +,2013-05-28 15:50:00,
2013-05-28 08:55:00,55.1,55.1,29.67,WSW,248,0.7,2.9,100,0.00,,,-99.99,197.0,HOBO +U30 +Weather +,2013-05-28 15:55:00,
2013-05-28 09:00:00,55.6,55.6,29.67,WSW,237,0.7,4.5,100,0.00,,,-99.99,214.0,HOBO +U30 +Weather +,2013-05-28 16:00:00,
2013-05-28 09:05:00,55.4,55.5,29.68,SW,229,1.1,4.5,100,0.00,,,-99.99,124.0,HOBO +U30 +Weather +,2013-05-28 16:05:00,
2013-05-28 09:10:00,55.0,55.0,29.68,SW,233,2.2,6.3,100,0.00,,,-99.99,114.0,HOBO +U30 +Weather +,2013-05-28 16:10:00,
2013-05-28 09:15:00,55.2,55.2,29.68,WSW,237,1.8,6.7,100,0.00,,,-99.99,91.0,HOBO +U30 +Weather +,2013-05-28 16:15:00,
2013-05-28 09:20:00,55.3,55.3,29.69,SW,223,1.1,7.4,100,0.00,,,-99.99,139.0,HOBO +U30 +Weather +,2013-05-28 16:20:00,
2013-05-28 09:25:00,55.5,55.5,29.68,SW,229,1.8,7.4,100,0.00,,,-99.99,134.0,HOBO +U30 +Weather +,2013-05-28 16:25:00,
2013-05-28 09:35:00,55.4,55.5,29.68,SW,226,2.9,7.4,100,0.00,,,-99.99,142.0,HOBO +U30 +Weather +,2013-05-28 16:35:00,
2013-05-28 09:40:00,54.9,54.9,29.68,SW,230,5.6,9.6,100,0.00,,,-99.99,154.0,HOBO +U30 +Weather +,2013-05-28 16:40:00,
2013-05-28 09:45:00,55.1,55.1,29.68,SW,222,3.4,7.8,100,0.00,,,-99.99,177.0,HOBO +U30 +Weather +,2013-05-28 16:45:00,
2013-05-28 09:50:00,55.2,55.2,29.68,SW,227,2.9,8.5,100,0.00,,,-99.99,209.0,HOBO +U30 +Weather +,2013-05-28 16:50:00,
2013-05-28 09:55:00,55.0,55.1,29.68,SW,230,3.4,8.5,100,0.00,,,-99.99,263.0,HOBO +U30 +Weather +,2013-05-28 16:55:00,
2013-05-28 10:00:00,55.3,55.3,29.68,SW,220,4.0,8.5,100,0.00,,,-99.99,151.0,HOBO +U30 +Weather +,2013-05-28 17:00:00,
2013-05-28 10:05:00,55.0,55.0,29.69,SW,227,5.1,8.9,100,0.00,,,-99.99,119.0,HOBO +U30 +Weather +,2013-05-28 17:05:00,
2013-05-28 10:10:00,54.9,54.9,29.69,SW,225,4.0,9.6,100,0.00,,,-99.99,183.0,HOBO +U30 +Weather +,2013-05-28 17:10:00,
2013-05-28 10:15:00,54.9,55.0,29.69,SW,236,4.0,11.2,100,0.00,,,-99.99,201.0,HOBO +U30 +Weather +,2013-05-28 17:15:00,
2013-05-28 10:20:00,55.6,55.6,29.68,SW,218,2.9,7.4,100,0.00,,,-99.99,382.0,HOBO +U30 +Weather +,2013-05-28 17:20:00,
2013-05-28 10:25:00,55.3,55.3,29.68,SW,225,5.1,11.9,100,0.00,,,-99.99,368.0,HOBO +U30 +Weather +,2013-05-28 17:25:00,
2013-05-28 10:35:00,55.2,55.3,29.67,SW,229,5.6,11.2,100,0.00,,,-99.99,436.0,HOBO +U30 +Weather +,2013-05-28 17:35:00,
2013-05-28 10:40:00,55.9,55.9,29.68,SW,232,4.5,10.1,100,0.00,,,-99.99,462.0,HOBO +U30 +Weather +,2013-05-28 17:40:00,
2013-05-28 10:45:00,56.5,56.5,29.68,SW,226,4.5,8.9,100,0.00,,,-99.99,432.0,HOBO +U30 +Weather +,2013-05-28 17:45:00,
2013-05-28 10:50:00,56.7,56.8,29.68,SW,227,6.3,10.1,100,0.00,,,-99.99,833.0,HOBO +U30 +Weather +,2013-05-28 17:50:00,
2013-05-28 10:55:00,57.6,57.6,29.68,SW,227,6.7,12.3,100,0.00,,,-99.99,899.0,HOBO +U30 +Weather +,2013-05-28 17:55:00,
2013-05-28 11:00:00,58.5,58.6,29.68,SW,229,4.0,7.8,100,0.00,,,-99.99,854.0,HOBO +U30 +Weather +,2013-05-28 18:00:00,
2013-05-28 11:05:00,59.3,59.3,29.68,SW,226,6.3,10.1,100,0.00,,,-99.99,762.0,HOBO +U30 +Weather +,2013-05-28 18:05:00,
2013-05-28 11:10:00,60.4,59.7,29.68,SW,227,5.6,11.2,97,0.00,,,-99.99,763.0,HOBO +U30 +Weather +,2013-05-28 18:10:00,
2013-05-28 11:15:00,61.3,58.9,29.68,SW,227,5.6,10.1,91,0.00,,,-99.99,773.0,HOBO +U30 +Weather +,2013-05-28 18:15:00,
2013-05-28 11:20:00,61.4,58.4,29.68,SW,230,7.4,12.3,89,0.00,,,-99.99,783.0,HOBO +U30 +Weather +,2013-05-28 18:20:00,
2013-05-28 11:25:00,62.1,58.3,29.68,SW,227,6.7,11.2,87,0.00,,,-99.99,791.0,HOBO +U30 +Weather +,2013-05-28 18:25:00,
2013-05-28 11:35:00,61.9,57.6,29.67,SW,232,5.6,10.1,85,0.00,,,-99.99,797.0,HOBO +U30 +Weather +,2013-05-28 18:35:00,
2013-05-28 11:40:00,63.1,58.4,29.68,SW,229,4.5,10.7,84,0.00,,,-99.99,816.0,HOBO +U30 +Weather +,2013-05-28 18:40:00,
2013-05-28 11:45:00,61.8,57.1,29.68,WSW,237,5.6,8.9,84,0.00,,,-99.99,823.0,HOBO +U30 +Weather +,2013-05-28 18:45:00,
2013-05-28 11:50:00,61.1,57.3,29.68,SW,233,6.3,10.7,87,0.00,,,-99.99,852.0,HOBO +U30 +Weather +,2013-05-28 18:50:00,
2013-05-28 11:55:00,61.6,58.2,29.68,SW,234,5.6,12.3,88,0.00,,,-99.99,734.0,HOBO +U30 +Weather +,2013-05-28 18:55:00,
2013-05-28 12:00:00,61.0,57.3,29.68,SW,226,6.7,13.0,87,0.00,,,-99.99,654.0,HOBO +U30 +Weather +,2013-05-28 19:00:00,
2013-05-28 12:05:00,62.3,58.4,29.68,SW,227,5.1,11.2,87,0.00,,,-99.99,892.0,HOBO +U30 +Weather +,2013-05-28 19:05:00,
2013-05-28 12:10:00,59.8,55.9,29.69,SW,227,8.5,15.9,86,0.00,,,-99.99,884.0,HOBO +U30 +Weather +,2013-05-28 19:10:00,
2013-05-28 12:15:00,60.0,56.9,29.69,SW,229,8.5,15.2,89,0.00,,,-99.99,862.0,HOBO +U30 +Weather +,2013-05-28 19:15:00,
2013-05-28 12:20:00,59.4,56.2,29.68,SW,225,8.9,17.0,89,0.00,,,-99.99,561.0,HOBO +U30 +Weather +,2013-05-28 19:20:00,
2013-05-28 12:25:00,59.7,56.6,29.69,SW,226,10.1,17.0,89,0.00,,,-99.99,888.0,HOBO +U30 +Weather +,2013-05-28 19:25:00,
2013-05-28 12:35:00,60.9,57.3,29.68,SW,233,7.4,14.1,87,0.00,,,-99.99,971.0,HOBO +U30 +Weather +,2013-05-28 19:35:00,
2013-05-28 12:40:00,59.7,56.4,29.68,SW,230,8.9,15.9,88,0.00,,,-99.99,346.0,HOBO +U30 +Weather +,2013-05-28 19:40:00,
2013-05-28 12:45:00,60.3,56.7,29.68,SW,234,7.4,12.3,87,0.00,,,-99.99,936.0,HOBO +U30 +Weather +,2013-05-28 19:45:00,
2013-05-28 12:50:00,59.9,56.1,29.68,SW,229,7.8,12.3,87,0.00,,,-99.99,1086.0,HOBO +U30 +Weather +,2013-05-28 19:50:00,
2013-05-28 12:55:00,59.7,55.7,29.68,WSW,237,7.8,14.5,86,0.00,,,-99.99,1072.0,HOBO +U30 +Weather +,2013-05-28 19:55:00,
2013-05-28 13:00:00,58.7,55.5,29.68,SW,225,10.7,17.4,88,0.00,,,-99.99,777.0,HOBO +U30 +Weather +,2013-05-28 20:00:00,
2013-05-28 13:05:00,58.5,55.6,29.67,SW,223,10.7,17.4,90,0.00,,,-99.99,822.0,HOBO +U30 +Weather +,2013-05-28 20:05:00,
2013-05-28 13:10:00,60.0,56.6,29.67,SW,230,10.1,15.9,88,0.00,,,-99.99,882.0,HOBO +U30 +Weather +,2013-05-28 20:10:00,
2013-05-28 13:15:00,60.4,56.4,29.67,SW,232,8.9,17.0,86,0.00,,,-99.99,551.0,HOBO +U30 +Weather +,2013-05-28 20:15:00,
2013-05-28 13:20:00,59.5,55.9,29.67,SW,227,10.1,15.9,87,0.00,,,-99.99,624.0,HOBO +U30 +Weather +,2013-05-28 20:20:00,
2013-05-28 13:25:00,59.0,55.8,29.68,SW,229,9.6,18.1,89,0.00,,,-99.99,524.0,HOBO +U30 +Weather +,2013-05-28 20:25:00,
2013-05-28 13:35:00,57.8,55.4,29.68,SW,234,7.8,17.4,91,0.00,,,-99.99,591.0,HOBO +U30 +Weather +,2013-05-28 20:35:00,
2013-05-28 13:40:00,57.6,55.8,29.68,SW,226,10.7,15.9,93,0.00,,,-99.99,623.0,HOBO +U30 +Weather +,2013-05-28 20:40:00,
2013-05-28 13:45:00,57.3,55.7,29.67,SW,234,10.1,16.3,94,0.00,,,-99.99,642.0,HOBO +U30 +Weather +,2013-05-28 20:45:00,
2013-05-28 13:50:00,58.0,56.2,29.67,SW,234,8.9,15.2,93,0.00,,,-99.99,652.0,HOBO +U30 +Weather +,2013-05-28 20:50:00,
2013-05-28 13:55:00,58.2,55.9,29.67,SW,230,9.6,16.3,92,0.00,,,-99.99,579.0,HOBO +U30 +Weather +,2013-05-28 20:55:00,
2013-05-28 14:00:00,59.2,56.7,29.67,SW,229,7.4,15.9,91,0.00,,,-99.99,562.0,HOBO +U30 +Weather +,2013-05-28 21:00:00,
2013-05-28 14:05:00,58.5,55.8,29.67,SW,234,8.5,16.3,90,0.00,,,-99.99,652.0,HOBO +U30 +Weather +,2013-05-28 21:05:00,
2013-05-28 14:10:00,58.0,55.8,29.67,WSW,237,7.8,16.3,92,0.00,,,-99.99,619.0,HOBO +U30 +Weather +,2013-05-28 21:10:00,
2013-05-28 14:15:00,58.2,55.8,29.67,SW,234,7.8,15.2,91,0.00,,,-99.99,654.0,HOBO +U30 +Weather +,2013-05-28 21:15:00,
2013-05-28 14:20:00,58.3,55.6,29.67,SW,226,8.5,19.2,90,0.00,,,-99.99,661.0,HOBO +U30 +Weather +,2013-05-28 21:20:00,
2013-05-28 14:25:00,57.8,55.4,29.67,SW,230,10.1,19.7,91,0.00,,,-99.99,672.0,HOBO +U30 +Weather +,2013-05-28 21:25:00,
2013-05-28 14:35:00,58.0,55.8,29.67,SW,233,10.1,16.3,92,0.00,,,-99.99,1054.0,HOBO +U30 +Weather +,2013-05-28 21:35:00,
2013-05-28 14:40:00,57.9,55.5,29.67,SW,234,10.1,20.4,91,0.00,,,-99.99,651.0,HOBO +U30 +Weather +,2013-05-28 21:40:00,
2013-05-28 14:45:00,57.8,55.5,29.67,SW,225,10.7,21.5,91,0.00,,,-99.99,704.0,HOBO +U30 +Weather +,2013-05-28 21:45:00,
2013-05-28 14:50:00,57.7,55.3,29.67,SW,230,10.1,17.0,91,0.00,,,-99.99,984.0,HOBO +U30 +Weather +,2013-05-28 21:50:00,
2013-05-28 14:55:00,57.8,55.6,29.67,SW,236,8.5,19.7,92,0.00,,,-99.99,592.0,HOBO +U30 +Weather +,2013-05-28 21:55:00,
2013-05-28 15:00:00,58.4,56.1,29.67,WSW,237,7.4,17.0,92,0.00,,,-99.99,524.0,HOBO +U30 +Weather +,2013-05-28 22:00:00,
2013-05-28 15:05:00,58.2,55.7,29.67,WSW,240,7.8,15.9,91,0.00,,,-99.99,459.0,HOBO +U30 +Weather +,2013-05-28 22:05:00,
2013-05-28 15:10:00,58.5,55.8,29.67,WSW,239,7.8,18.6,90,0.00,,,-99.99,372.0,HOBO +U30 +Weather +,2013-05-28 22:10:00,
2013-05-28 15:15:00,58.2,55.5,29.67,SW,232,8.5,17.4,90,0.00,,,-99.99,807.0,HOBO +U30 +Weather +,2013-05-28 22:15:00,
2013-05-28 15:20:00,59.7,56.7,29.67,WSW,239,6.3,14.1,89,0.00,,,-99.99,747.0,HOBO +U30 +Weather +,2013-05-28 22:20:00,
2013-05-28 15:25:00,59.9,56.2,29.66,SW,233,7.4,14.1,87,0.00,,,-99.99,729.0,HOBO +U30 +Weather +,2013-05-28 22:25:00,
2013-05-28 15:35:00,60.2,56.0,29.66,SW,233,7.8,15.9,86,0.00,,,-99.99,721.0,HOBO +U30 +Weather +,2013-05-28 22:35:00,
2013-05-28 15:40:00,59.5,55.5,29.66,SW,229,10.1,20.4,86,0.00,,,-99.99,787.0,HOBO +U30 +Weather +,2013-05-28 22:40:00,
2013-05-28 15:45:00,59.2,55.8,29.66,SW,229,10.1,18.6,88,0.00,,,-99.99,827.0,HOBO +U30 +Weather +,2013-05-28 22:45:00,
2013-05-28 15:50:00,58.9,55.5,29.66,SW,234,10.1,16.3,88,0.00,,,-99.99,649.0,HOBO +U30 +Weather +,2013-05-28 22:50:00,
2013-05-28 15:55:00,59.0,55.5,29.65,SW,229,9.6,20.4,87,0.00,,,-99.99,682.0,HOBO +U30 +Weather +,2013-05-28 22:55:00,
2013-05-28 16:00:00,59.9,56.3,29.65,WSW,239,6.7,13.4,87,0.00,,,-99.99,394.0,HOBO +U30 +Weather +,2013-05-28 23:00:00,
2013-05-28 16:05:00,58.6,54.9,29.65,SW,233,8.5,16.3,87,0.00,,,-99.99,438.0,HOBO +U30 +Weather +,2013-05-28 23:05:00,
2013-05-28 16:10:00,57.5,54.8,29.65,SW,225,10.1,17.4,90,0.00,,,-99.99,696.0,HOBO +U30 +Weather +,2013-05-28 23:10:00,
2013-05-28 16:15:00,58.4,55.2,29.65,SW,230,7.8,14.1,89,0.00,,,-99.99,522.0,HOBO +U30 +Weather +,2013-05-28 23:15:00,
2013-05-28 16:20:00,58.4,55.4,29.65,SW,234,9.6,17.0,89,0.00,,,-99.99,617.0,HOBO +U30 +Weather +,2013-05-28 23:20:00,
2013-05-28 16:25:00,57.3,54.3,29.64,SW,230,10.7,17.0,89,0.00,,,-99.99,701.0,HOBO +U30 +Weather +,2013-05-28 23:25:00,
2013-05-28 16:35:00,57.8,54.8,29.64,SW,234,11.9,20.8,89,0.00,,,-99.99,612.0,HOBO +U30 +Weather +,2013-05-28 23:35:00,
2013-05-28 16:40:00,57.5,54.1,29.64,SW,232,11.2,19.2,88,0.00,,,-99.99,504.0,HOBO +U30 +Weather +,2013-05-28 23:40:00,
2013-05-28 16:45:00,57.5,54.6,29.65,SW,232,9.6,17.0,89,0.00,,,-99.99,291.0,HOBO +U30 +Weather +,2013-05-28 23:45:00,
2013-05-28 16:50:00,57.6,54.9,29.65,SW,230,8.9,16.3,90,0.00,,,-99.99,461.0,HOBO +U30 +Weather +,2013-05-28 23:50:00,
2013-05-28 16:55:00,58.0,55.0,29.64,SW,227,8.5,17.0,89,0.00,,,-99.99,544.0,HOBO +U30 +Weather +,2013-05-28 23:55:00,
2013-05-28 17:00:00,58.7,55.3,29.64,SW,222,7.4,13.4,88,0.00,,,-99.99,513.0,HOBO +U30 +Weather +,2013-05-29 00:00:00,
2013-05-28 17:05:00,58.3,54.7,29.63,WSW,241,6.7,12.3,87,0.00,,,-99.99,498.0,HOBO +U30 +Weather +,2013-05-29 00:05:00,
2013-05-28 17:10:00,59.5,55.6,29.64,WSW,240,5.6,11.9,87,0.00,,,-99.99,484.0,HOBO +U30 +Weather +,2013-05-29 00:10:00,
2013-05-28 17:15:00,59.1,54.9,29.63,WSW,239,7.4,13.4,85,0.00,,,-99.99,472.0,HOBO +U30 +Weather +,2013-05-29 00:15:00,
2013-05-28 17:20:00,59.7,55.6,29.63,WSW,237,5.6,13.0,86,0.00,,,-99.99,457.0,HOBO +U30 +Weather +,2013-05-29 00:20:00,
2013-05-28 17:25:00,59.3,54.8,29.63,WSW,244,5.6,11.9,84,0.00,,,-99.99,444.0,HOBO +U30 +Weather +,2013-05-29 00:25:00,
2013-05-28 17:35:00,59.6,55.2,29.62,WSW,237,6.3,12.3,85,0.00,,,-99.99,432.0,HOBO +U30 +Weather +,2013-05-29 00:35:00,
2013-05-28 17:40:00,58.2,54.5,29.62,SW,232,8.5,14.5,87,0.00,,,-99.99,403.0,HOBO +U30 +Weather +,2013-05-29 00:40:00,
2013-05-28 17:45:00,57.3,54.1,29.62,SW,227,8.9,14.1,88,0.00,,,-99.99,391.0,HOBO +U30 +Weather +,2013-05-29 00:45:00,
2013-05-28 17:50:00,57.6,55.0,29.61,SW,232,8.5,16.3,90,0.00,,,-99.99,374.0,HOBO +U30 +Weather +,2013-05-29 00:50:00,
2013-05-28 17:55:00,57.9,54.9,29.62,SW,232,8.5,17.4,89,0.00,,,-99.99,363.0,HOBO +U30 +Weather +,2013-05-29 00:55:00,
2013-05-28 18:00:00,57.8,54.6,29.62,SW,232,8.5,14.5,88,0.00,,,-99.99,348.0,HOBO +U30 +Weather +,2013-05-29 01:00:00,
2013-05-28 18:05:00,57.1,54.0,29.62,SW,229,10.7,18.1,89,0.00,,,-99.99,336.0,HOBO +U30 +Weather +,2013-05-29 01:05:00,
2013-05-28 18:10:00,56.7,54.0,29.62,SW,227,10.7,15.9,90,0.00,,,-99.99,319.0,HOBO +U30 +Weather +,2013-05-29 01:10:00,
2013-05-28 18:15:00,57.0,54.6,29.62,SW,226,8.5,17.0,91,0.00,,,-99.99,263.0,HOBO +U30 +Weather +,2013-05-29 01:15:00,
2013-05-28 18:20:00,56.2,53.9,29.63,SW,234,7.8,14.5,91,0.00,,,-99.99,149.0,HOBO +U30 +Weather +,2013-05-29 01:20:00,
2013-05-28 18:25:00,55.9,54.0,29.63,SW,230,7.8,15.2,93,0.00,,,-99.99,171.0,HOBO +U30 +Weather +,2013-05-29 01:25:00,
2013-05-28 18:35:00,56.2,54.4,29.63,SW,229,6.7,14.5,93,0.00,,,-99.99,284.0,HOBO +U30 +Weather +,2013-05-29 01:35:00,
2013-05-28 18:40:00,55.7,53.8,29.62,SW,230,8.5,13.4,93,0.00,,,-99.99,212.0,HOBO +U30 +Weather +,2013-05-29 01:40:00,
2013-05-28 18:45:00,55.5,53.7,29.62,SW,229,8.9,16.3,93,0.00,,,-99.99,226.0,HOBO +U30 +Weather +,2013-05-29 01:45:00,
2013-05-28 18:50:00,55.4,53.8,29.62,SW,233,10.1,16.3,94,0.00,,,-99.99,204.0,HOBO +U30 +Weather +,2013-05-29 01:50:00,
2013-05-28 18:55:00,55.5,53.7,29.62,SW,230,9.6,14.5,93,0.00,,,-99.99,161.0,HOBO +U30 +Weather +,2013-05-29 01:55:00,
2013-05-28 19:00:00,55.0,53.3,29.62,SW,230,8.5,14.5,93,0.00,,,-99.99,177.0,HOBO +U30 +Weather +,2013-05-29 02:00:00,
2013-05-28 19:05:00,55.1,53.7,29.62,SW,230,8.9,16.3,94,0.00,,,-99.99,164.0,HOBO +U30 +Weather +,2013-05-29 02:05:00,
2013-05-28 19:10:00,55.3,53.8,29.62,SW,229,8.5,15.2,94,0.00,,,-99.99,152.0,HOBO +U30 +Weather +,2013-05-29 02:10:00,
2013-05-28 19:15:00,54.9,53.4,29.62,SW,230,10.7,18.1,94,0.00,,,-99.99,103.0,HOBO +U30 +Weather +,2013-05-29 02:15:00,
2013-05-28 19:20:00,54.8,53.4,29.62,SW,234,10.1,18.6,95,0.00,,,-99.99,61.0,HOBO +U30 +Weather +,2013-05-29 02:20:00,
2013-05-28 19:25:00,54.4,53.3,29.62,SW,233,11.2,18.6,95,0.00,,,-99.99,28.0,HOBO +U30 +Weather +,2013-05-29 02:25:00,
2013-05-28 19:35:00,54.4,53.5,29.62,SW,232,10.7,16.3,96,0.00,,,-99.99,33.0,HOBO +U30 +Weather +,2013-05-29 02:35:00,
2013-05-28 19:40:00,54.7,53.5,29.63,SW,230,8.9,14.5,95,0.00,,,-99.99,48.0,HOBO +U30 +Weather +,2013-05-29 02:40:00,
2013-05-28 19:45:00,54.6,53.3,29.63,SW,230,8.9,14.1,95,0.00,,,-99.99,44.0,HOBO +U30 +Weather +,2013-05-29 02:45:00,
2013-05-28 19:50:00,54.7,53.5,29.63,SW,230,7.8,11.9,95,0.00,,,-99.99,34.0,HOBO +U30 +Weather +,2013-05-29 02:50:00,
2013-05-28 19:55:00,54.7,53.4,29.62,SW,232,7.4,13.0,95,0.00,,,-99.99,22.0,HOBO +U30 +Weather +,2013-05-29 02:55:00,
2013-05-28 20:00:00,54.3,53.2,29.62,SW,234,8.5,15.2,95,0.00,,,-99.99,17.0,HOBO +U30 +Weather +,2013-05-29 03:00:00,
2013-05-28 20:05:00,54.4,53.3,29.62,SW,229,10.1,17.0,96,0.00,,,-99.99,12.0,HOBO +U30 +Weather +,2013-05-29 03:05:00,
2013-05-28 20:10:00,54.5,53.1,29.63,SW,227,11.2,17.4,94,0.00,,,-99.99,7.0,HOBO +U30 +Weather +,2013-05-29 03:10:00,
2013-05-28 20:15:00,54.3,52.9,29.63,SW,226,11.2,17.0,94,0.00,,,-99.99,4.0,HOBO +U30 +Weather +,2013-05-29 03:15:00,
2013-05-28 20:20:00,54.0,52.8,29.63,SW,227,10.7,18.6,95,0.00,,,-99.99,2.0,HOBO +U30 +Weather +,2013-05-29 03:20:00,
2013-05-28 20:25:00,53.9,52.9,29.63,SW,225,9.6,14.1,96,0.00,,,-99.99,1.0,HOBO +U30 +Weather +,2013-05-29 03:25:00,
2013-05-28 20:35:00,53.8,53.0,29.63,SW,225,10.7,17.4,96,0.00,,,-99.99,1.0,HOBO +U30 +Weather +,2013-05-29 03:35:00,
2013-05-28 20:40:00,53.9,53.2,29.63,SW,230,9.6,14.5,97,0.00,,,-99.99,1.0,HOBO +U30 +Weather +,2013-05-29 03:40:00,
2013-05-28 20:45:00,53.7,53.2,29.62,SW,226,11.2,18.1,98,0.00,,,-99.99,1.0,HOBO +U30 +Weather +,2013-05-29 03:45:00,
2013-05-28 20:50:00,53.8,53.3,29.62,SW,225,8.5,12.3,98,0.00,,,-99.99,1.0,HOBO +U30 +Weather +,2013-05-29 03:50:00,
2013-05-28 20:55:00,53.8,53.2,29.62,SW,234,6.7,12.3,97,0.00,,,-99.99,1.0,HOBO +U30 +Weather +,2013-05-29 03:55:00,
2013-05-28 21:00:00,54.0,53.2,29.63,SW,236,2.9,8.9,96,0.00,,,-99.99,1.0,HOBO +U30 +Weather +,2013-05-29 04:00:00,
2013-05-28 21:05:00,53.8,52.8,29.63,WSW,246,4.5,10.7,96,0.00,,,-99.99,1.0,HOBO +U30 +Weather +,2013-05-29 04:05:00,
2013-05-28 21:10:00,53.5,52.6,29.63,WSW,241,5.6,11.9,96,0.00,,,-99.99,1.0,HOBO +U30 +Weather +,2013-05-29 04:10:00,
2013-05-28 21:15:00,53.7,52.8,29.62,SW,229,8.5,16.3,96,0.00,,,-99.99,1.0,HOBO +U30 +Weather +,2013-05-29 04:15:00,
2013-05-28 21:20:00,53.9,52.8,29.62,SW,230,7.8,13.4,95,0.00,,,-99.99,1.0,HOBO +U30 +Weather +,2013-05-29 04:20:00,
2013-05-28 21:25:00,54.0,52.8,29.62,SW,234,6.7,11.9,95,0.00,,,-99.99,1.0,HOBO +U30 +Weather +,2013-05-29 04:25:00,
2013-05-28 21:30:00,54.1,52.7,29.62,SW,227,6.3,11.2,94,0.00,,,-99.99,1.0,HOBO +U30 +Weather +,2013-05-29 04:30:00,
2013-05-28 21:35:00,53.9,52.7,29.62,SW,232,7.8,13.0,95,0.00,,,-99.99,1.0,HOBO +U30 +Weather +,2013-05-29 04:35:00,
2013-05-28 21:40:00,53.6,52.7,29.62,SW,226,6.7,13.0,96,0.00,,,-99.99,1.0,HOBO +U30 +Weather +,2013-05-29 04:40:00,
2013-05-28 21:45:00,53.5,52.8,29.62,SW,227,6.3,10.1,97,0.00,,,-99.99,1.0,HOBO +U30 +Weather +,2013-05-29 04:45:00,
2013-05-28 21:50:00,53.7,52.9,29.62,SW,230,6.7,11.2,97,0.00,,,-99.99,1.0,HOBO +U30 +Weather +,2013-05-29 04:50:00,
2013-05-28 21:55:00,53.8,52.8,29.62,SW,222,5.1,10.7,96,0.00,,,-99.99,1.0,HOBO +U30 +Weather +,2013-05-29 04:55:00,
2013-05-28 22:00:00,53.7,52.7,29.62,SW,219,4.0,6.7,96,0.00,,,-99.99,1.0,HOBO +U30 +Weather +,2013-05-29 05:00:00,
2013-05-28 22:05:00,53.8,52.8,29.62,SW,219,2.9,5.6,96,0.00,,,-99.99,1.0,HOBO +U30 +Weather +,2013-05-29 05:05:00,
2013-05-28 22:10:00,53.9,52.9,29.62,SW,219,2.9,7.8,96,0.00,,,-99.99,1.0,HOBO +U30 +Weather +,2013-05-29 05:10:00,
2013-05-28 22:15:00,53.9,52.8,29.62,SSW,213,5.1,12.3,96,0.00,,,-99.99,1.0,HOBO +U30 +Weather +,2013-05-29 05:15:00,
2013-05-28 22:20:00,53.9,52.9,29.61,SW,223,6.3,10.1,96,0.00,,,-99.99,1.0,HOBO +U30 +Weather +,2013-05-29 05:20:00,
2013-05-28 22:25:00,53.8,52.9,29.62,SW,225,6.7,13.0,96,0.00,,,-99.99,1.0,HOBO +U30 +Weather +,2013-05-29 05:25:00,
2013-05-28 22:30:00,53.8,52.9,29.63,SW,227,7.4,10.7,96,0.00,,,-99.99,1.0,HOBO +U30 +Weather +,2013-05-29 05:30:00,
2013-05-28 22:35:00,53.9,53.0,29.63,SW,225,4.5,9.6,96,0.00,,,-99.99,1.0,HOBO +U30 +Weather +,2013-05-29 05:35:00,
2013-05-28 22:40:00,53.7,52.7,29.64,SW,230,7.8,17.4,96,0.00,,,-99.99,1.0,HOBO +U30 +Weather +,2013-05-29 05:40:00,
2013-05-28 22:45:00,53.3,52.5,29.65,SW,230,10.7,19.7,96,0.00,,,-99.99,1.0,HOBO +U30 +Weather +,2013-05-29 05:45:00,
2013-05-28 22:50:00,53.2,52.6,29.65,SW,233,6.7,14.5,97,0.00,,,-99.99,1.0,HOBO +U30 +Weather +,2013-05-29 05:50:00,
2013-05-28 22:55:00,53.3,52.7,29.65,SW,232,6.7,13.0,97,0.00,,,-99.99,1.0,HOBO +U30 +Weather +,2013-05-29 05:55:00,
2013-05-28 23:00:00,53.2,52.5,29.65,SW,230,5.6,13.4,97,0.00,,,-99.99,1.0,HOBO +U30 +Weather +,2013-05-29 06:00:00,
2013-05-28 23:05:00,53.0,52.4,29.65,WSW,237,6.7,13.4,97,0.00,,,-99.99,1.0,HOBO +U30 +Weather +,2013-05-29 06:05:00,
2013-05-28 23:10:00,53.0,52.4,29.65,SW,232,7.8,13.4,98,0.00,,,-99.99,1.0,HOBO +U30 +Weather +,2013-05-29 06:10:00,
2013-05-28 23:15:00,53.0,52.5,29.65,SW,220,5.6,11.9,98,0.00,,,-99.99,1.0,HOBO +U30 +Weather +,2013-05-29 06:15:00,
2013-05-28 23:20:00,53.3,52.6,29.65,SW,222,6.7,13.0,97,0.00,,,-99.99,1.0,HOBO +U30 +Weather +,2013-05-29 06:20:00,
2013-05-28 23:34:00,53.3,52.5,29.65,SW,227,6.3,11.2,97,0.00,,,-99.99,1.0,HOBO +U30 +Weather +,2013-05-29 06:34:00,
2013-05-28 23:35:00,53.1,52.5,29.65,SW,229,7.4,12.3,97,0.00,,,-99.99,1.0,HOBO +U30 +Weather +,2013-05-29 06:35:00,
2013-05-28 23:40:00,52.9,52.4,29.64,SW,229,7.4,13.0,98,0.00,,,-99.99,1.0,HOBO +U30 +Weather +,2013-05-29 06:40:00,
2013-05-28 23:45:00,52.9,52.5,29.64,SW,233,10.1,15.9,98,0.00,,,-99.99,1.0,HOBO +U30 +Weather +,2013-05-29 06:45:00,
2013-05-28 23:50:00,52.8,52.5,29.64,SW,232,9.6,14.1,98,0.00,,,-99.99,1.0,HOBO +U30 +Weather +,2013-05-29 06:50:00,
2013-05-28 23:55:00,52.8,52.5,29.64,SW,229,8.9,15.2,98,0.00,,,-99.99,1.0,HOBO +U30 +Weather +,2013-05-29 06:55:00,